Van Orin, Illinois
Current Conditions -  °F | °C
As of 10:55 PM on Thursday 30 Oct 2014 (Local Time) from KVYS Reporting Station
Overcast Overcast  
Wind Chill: 42°   Ceiling: 6500
Heat Index: 44°   Visibility: 10mi
Dew Point: 39°   Wind: 5mph
Humidity: 82%   Direction: 270°W
Pressure: 30.08"   Gusts: NA
Location:  41.55°N, 89.35°W
Report Text: KVYS 310355Z AUTO 27004KT 10SM OVC065 07/04 A3008 RMK AO2 T00670038
Loading
Personal Weather Stations






























Interactive Weather Map
Tropical Storm Tracking
New forecast layout! Learn more

10-Day Weather Forecast

Advertisements
Track Severe Weather on mobile